Time;durP1;ratioP1;P1;durP2;ratioP2;P2;SDS_P1;SDS_P2;PMS_P1;PMS_P2;Temp;Humidity;BMP_temperature;BMP_pressure;BME280_temperature;BME280_humidity;BME280_pressure;Samples;Min_cycle;Max_cycle;Signal;HPM_P1;HPM_P2
2023/03/19 00:01:19;;;;;;;1999.90;999.90;;;12.00;99.90;;;;;;5071386;28;20180;-65
2023/03/19 00:03:46;;;;;;;1999.90;999.90;;;11.90;99.90;;;;;;5071227;28;20205;-65
2023/03/19 00:06:12;;;;;;;1999.90;999.90;;;12.00;99.90;;;;;;5073174;28;20275;-66
2023/03/19 00:08:38;;;;;;;1999.90;999.90;;;12.00;99.90;;;;;;5074673;28;21034;-66
2023/03/19 00:11:08;;;;;;;1999.90;999.90;;;11.90;99.90;;;;;;5074913;28;20416;-65
2023/03/19 00:13:34;;;;;;;1999.90;999.90;;;11.90;99.90;;;;;;5074687;28;20260;-66
2023/03/19 00:16:00;;;;;;;1999.90;999.90;;;11.90;99.90;;;;;;5074595;28;20602;-66
2023/03/19 00:18:25;;;;;;;1999.90;999.90;;;11.90;99.90;;;;;;5074725;28;20178;-66
2023/03/19 00:20:51;;;;;;;1999.90;999.90;;;11.80;99.90;;;;;;5074540;28;20945;-66
2023/03/19 00:23:16;;;;;;;1999.90;999.90;;;11.80;99.90;;;;;;5074142;28;20191;-66
2023/03/19 00:25:42;;;;;;;1999.90;999.90;;;11.70;99.90;;;;;;5074577;28;20184;-66
2023/03/19 00:28:08;;;;;;;1999.90;999.90;;;11.60;99.90;;;;;;5074484;28;20176;-66
2023/03/19 00:30:34;;;;;;;1999.90;999.90;;;11.60;99.90;;;;;;5074591;28;20173;-66
2023/03/19 00:33:00;;;;;;;1999.90;999.90;;;11.50;99.90;;;;;;5074299;28;20845;-65
2023/03/19 00:35:26;;;;;;;1999.90;999.90;;;11.10;99.90;;;;;;5074180;28;20468;-66
2023/03/19 00:37:51;;;;;;;1999.90;999.90;;;11.50;99.90;;;;;;5073976;28;20182;-65
2023/03/19 00:40:17;;;;;;;1999.90;999.90;;;11.50;99.90;;;;;;5074039;28;20464;-66
2023/03/19 00:42:43;;;;;;;1999.90;999.90;;;11.50;99.90;;;;;;5073972;28;20196;-65
2023/03/19 00:45:10;;;;;;;1999.90;999.90;;;11.50;99.90;;;;;;5074138;28;20200;-66
2023/03/19 00:47:36;;;;;;;1999.90;999.90;;;11.50;99.90;;;;;;5073907;28;20896;-65
2023/03/19 00:50:03;;;;;;;1999.90;999.90;;;11.50;99.90;;;;;;5074133;28;20543;-66
2023/03/19 00:52:29;;;;;;;1999.90;999.90;;;11.40;99.90;;;;;;5073899;28;20415;-66
2023/03/19 00:54:55;;;;;;;1999.90;999.90;;;11.60;99.90;;;;;;5073888;28;20899;-65
2023/03/19 00:57:21;;;;;;;1999.90;999.90;;;11.40;99.90;;;;;;5074038;28;20538;-66
2023/03/19 00:59:46;;;;;;;1999.90;999.90;;;11.50;99.90;;;;;;5073945;28;20183;-66
2023/03/19 01:02:12;;;;;;;1999.90;999.90;;;11.60;99.90;;;;;;5073554;28;20454;-66
2023/03/19 01:04:38;;;;;;;1999.90;999.90;;;11.50;99.90;;;;;;5074072;28;20459;-65
2023/03/19 01:07:03;;;;;;;1999.90;999.90;;;11.50;99.90;;;;;;5073582;28;20696;-66
2023/03/19 01:09:29;;;;;;;1999.90;999.90;;;11.40;99.90;;;;;;5073842;28;20206;-65
2023/03/19 01:11:55;;;;;;;1999.90;999.90;;;11.50;99.90;;;;;;5073699;28;20180;-65
2023/03/19 01:14:21;;;;;;;1999.90;999.90;;;11.40;99.90;;;;;;5073471;28;20413;-65
2023/03/19 01:16:47;;;;;;;1999.90;999.90;;;11.40;99.90;;;;;;5073309;28;20425;-66
2023/03/19 01:19:13;;;;;;;1999.90;999.90;;;11.40;99.90;;;;;;5073471;28;20631;-65
2023/03/19 01:21:39;;;;;;;1999.90;999.90;;;11.30;99.90;;;;;;5073383;28;20198;-65
2023/03/19 01:24:04;;;;;;;1999.90;999.90;;;11.30;99.90;;;;;;5073439;28;20401;-66
2023/03/19 01:26:30;;;;;;;1999.90;999.90;;;11.30;99.90;;;;;;5073109;28;20428;-65
2023/03/19 01:28:57;;;;;;;1999.90;999.90;;;11.30;99.90;;;;;;5073288;28;20168;-66
2023/03/19 01:31:22;;;;;;;1999.90;999.90;;;11.40;99.90;;;;;;5073242;28;20510;-66
2023/03/19 01:33:48;;;;;;;1999.90;999.90;;;11.40;99.90;;;;;;5073050;28;20409;-66
2023/03/19 01:36:14;;;;;;;1999.90;999.90;;;11.40;99.90;;;;;;5072874;28;20183;-65
2023/03/19 01:38:39;;;;;;;1999.90;999.90;;;11.40;99.90;;;;;;5073084;28;20270;-66
2023/03/19 01:41:05;;;;;;;1999.90;999.90;;;11.50;99.90;;;;;;5073194;28;20184;-66
2023/03/19 01:43:31;;;;;;;1999.90;999.90;;;11.50;99.90;;;;;;5072746;28;20191;-66
2023/03/19 01:46:11;;;;;;;1999.90;999.90;;;11.60;99.90;;;;;;5072835;28;20672;-66
2023/03/19 01:48:47;;;;;;;1999.90;999.90;;;11.70;99.90;;;;;;5072853;28;20497;-66
2023/03/19 01:51:16;;;;;;;1999.90;999.90;;;11.80;99.90;;;;;;5072874;28;20445;-66
2023/03/19 01:53:46;;;;;;;1999.90;999.90;;;11.70;99.90;;;;;;5072552;28;20405;-66
2023/03/19 01:56:32;;;;;;;1999.90;999.90;;;11.80;99.90;;;;;;5073018;28;20512;-66
2023/03/19 01:59:03;;;;;;;1999.90;999.90;;;11.70;99.90;;;;;;5072836;28;20548;-66
2023/03/19 02:01:32;;;;;;;1999.90;999.90;;;11.70;99.90;;;;;;5072928;28;20467;-66
2023/03/19 02:03:59;;;;;;;1999.90;999.90;;;11.80;99.90;;;;;;5072598;28;20418;-66
2023/03/19 02:06:27;;;;;;;1999.90;999.90;;;11.80;99.90;;;;;;5072600;28;20422;-66
2023/03/19 02:08:53;;;;;;;1999.90;999.90;;;11.80;99.90;;;;;;5072703;28;20441;-66
2023/03/19 02:11:20;;;;;;;1999.90;999.90;;;11.80;99.90;;;;;;5072568;28;20433;-66
2023/03/19 02:13:46;;;;;;;1999.90;999.90;;;11.80;99.90;;;;;;5072315;28;20411;-66
2023/03/19 02:16:13;;;;;;;1999.90;999.90;;;11.90;99.90;;;;;;5072732;28;20936;-66
2023/03/19 02:18:39;;;;;;;1999.90;999.90;;;11.90;99.90;;;;;;5072459;28;20394;-66
2023/03/19 02:21:15;;;;;;;1999.90;999.90;;;11.90;99.90;;;;;;5072686;28;20418;-66
2023/03/19 02:23:52;;;;;;;1999.90;999.90;;;11.90;99.90;;;;;;5072329;28;20412;-66
2023/03/19 02:26:25;;;;;;;1999.90;999.90;;;11.90;99.90;;;;;;5072250;28;20419;-66
2023/03/19 02:28:52;;;;;;;1999.90;999.90;;;11.90;99.90;;;;;;5072087;28;20410;-66
2023/03/19 02:31:19;;;;;;;1999.90;999.90;;;11.90;99.90;;;;;;5072484;28;20408;-66
2023/03/19 02:34:03;;;;;;;1999.90;999.90;;;11.90;99.90;;;;;;5072176;28;20410;-66
2023/03/19 02:36:37;;;;;;;1999.90;999.90;;;11.90;99.90;;;;;;5071883;28;20494;-66
2023/03/19 02:39:06;;;;;;;1999.90;999.90;;;11.80;99.90;;;;;;5072227;28;20444;-66
2023/03/19 02:41:33;;;;;;;1999.90;999.90;;;11.80;99.90;;;;;;5072026;28;20946;-66
2023/03/19 02:44:02;;;;;;;1999.90;999.90;;;11.80;99.90;;;;;;5072114;28;20493;-66
2023/03/19 02:46:28;;;;;;;1999.90;999.90;;;11.80;99.90;;;;;;5072039;28;20427;-66
2023/03/19 02:48:53;;;;;;;1999.90;999.90;;;11.90;99.90;;;;;;5072165;28;20417;-66
2023/03/19 02:51:19;;;;;;;1999.90;999.90;;;11.90;99.90;;;;;;5072246;28;20410;-66
2023/03/19 02:53:45;;;;;;;1999.90;999.90;;;11.90;99.90;;;;;;5071811;28;20169;-66
2023/03/19 02:56:11;;;;;;;1999.90;999.90;;;11.90;99.90;;;;;;5072023;28;20433;-66
2023/03/19 02:58:36;;;;;;;1999.90;999.90;;;11.90;99.90;;;;;;5072028;28;20161;-66
2023/03/19 03:01:02;;;;;;;1999.90;999.90;;;11.90;99.90;;;;;;5070807;28;20172;-66
2023/03/19 03:03:28;;;;;;;1999.90;999.90;;;11.90;99.90;;;;;;5071888;28;20266;-66
2023/03/19 03:05:54;;;;;;;1999.90;999.90;;;11.90;99.90;;;;;;5071807;28;20710;-66
2023/03/19 03:08:19;;;;;;;1999.90;999.90;;;11.80;99.90;;;;;;5072046;28;20168;-66
2023/03/19 03:10:45;;;;;;;1999.90;999.90;;;11.80;99.90;;;;;;5072112;28;20651;-66
2023/03/19 03:13:10;;;;;;;1999.90;999.90;;;11.70;99.90;;;;;;5071714;28;20246;-66
2023/03/19 03:15:36;;;;;;;1999.90;999.90;;;11.70;99.90;;;;;;5071993;28;20193;-66
2023/03/19 03:18:02;;;;;;;1999.90;999.90;;;11.60;99.90;;;;;;5071723;28;20171;-66
2023/03/19 03:20:28;;;;;;;1999.90;999.90;;;11.50;99.90;;;;;;5071885;28;20179;-66
2023/03/19 03:22:53;;;;;;;1999.90;999.90;;;11.50;99.90;;;;;;5071456;28;20230;-66
2023/03/19 03:25:19;;;;;;;1999.90;999.90;;;11.30;99.90;;;;;;5071704;28;20509;-66
2023/03/19 03:27:45;;;;;;;1999.90;999.90;;;11.30;99.90;;;;;;5071749;28;20178;-66
2023/03/19 03:30:11;;;;;;;1999.90;999.90;;;11.20;99.90;;;;;;5071656;28;20401;-66
2023/03/19 03:32:38;;;;;;;1999.90;999.90;;;11.20;99.90;;;;;;5071479;28;20159;-66
2023/03/19 03:35:04;;;;;;;1999.90;999.90;;;11.10;99.90;;;;;;5071454;28;20421;-66
2023/03/19 03:37:30;;;;;;;1999.90;999.90;;;11.10;99.90;;;;;;5071509;28;20413;-66
2023/03/19 03:39:56;;;;;;;1999.90;999.90;;;11.10;99.90;;;;;;5071883;28;20416;-66
2023/03/19 03:42:21;;;;;;;1999.90;999.90;;;11.10;99.90;;;;;;5075203;28;20207;-66
2023/03/19 03:44:47;;;;;;;1999.90;999.90;;;11.10;99.90;;;;;;5075246;28;20190;-66
2023/03/19 03:47:13;;;;;;;1999.90;999.90;;;11.10;99.90;;;;;;5075132;28;20175;-66
2023/03/19 03:49:39;;;;;;;1999.90;999.90;;;11.10;99.90;;;;;;5075088;28;20175;-66
2023/03/19 03:52:05;;;;;;;1999.90;999.90;;;11.00;99.90;;;;;;5075118;28;20415;-66
2023/03/19 03:54:30;;;;;;;1999.90;999.90;;;10.90;99.90;;;;;;5075425;28;20770;-66
2023/03/19 03:56:56;;;;;;;1999.90;999.90;;;10.90;99.90;;;;;;5075135;28;20425;-66
2023/03/19 03:59:23;;;;;;;1999.90;999.90;;;11.00;99.90;;;;;;5075103;28;20245;-66
2023/03/19 04:01:48;;;;;;;1999.90;999.90;;;11.00;99.90;;;;;;5074843;28;20274;-66
2023/03/19 04:04:14;;;;;;;1999.90;999.90;;;11.00;99.90;;;;;;5074686;28;20965;-66
2023/03/19 04:06:40;;;;;;;1999.90;999.90;;;10.90;99.90;;;;;;5074947;28;20210;-66
2023/03/19 04:09:06;;;;;;;1999.90;999.90;;;10.90;99.90;;;;;;5074869;28;20175;-66
2023/03/19 04:11:33;;;;;;;1999.90;999.90;;;10.80;99.90;;;;;;5075095;28;20175;-66
2023/03/19 04:14:00;;;;;;;1999.90;999.90;;;10.80;99.90;;;;;;5074577;28;20890;-66
2023/03/19 04:16:27;;;;;;;1999.90;999.90;;;10.90;99.90;;;;;;5074620;28;20845;-66
2023/03/19 04:18:53;;;;;;;1999.90;999.90;;;10.90;99.90;;;;;;5074897;28;20417;-66
2023/03/19 04:21:18;;;;;;;1999.90;999.90;;;11.00;99.90;;;;;;5074752;28;20458;-66
2023/03/19 04:23:44;;;;;;;1999.90;999.90;;;11.00;99.90;;;;;;5074490;28;20743;-66
2023/03/19 04:26:11;;;;;;;1999.90;999.90;;;11.00;99.90;;;;;;5075558;28;20198;-67
2023/03/19 04:28:36;;;;;;;1999.90;999.90;;;11.00;99.90;;;;;;5076578;28;20175;-66
2023/03/19 04:31:06;;;;;;;1999.90;999.90;;;11.00;99.90;;;;;;5076471;28;20776;-67
2023/03/19 04:33:32;;;;;;;1999.90;999.90;;;11.00;99.90;;;;;;5076320;28;20168;-66
2023/03/19 04:35:58;;;;;;;1999.90;999.90;;;11.10;99.90;;;;;;5076683;28;20429;-67
2023/03/19 04:38:28;;;;;;;1999.90;999.90;;;11.00;99.90;;;;;;5076767;28;20228;-67
2023/03/19 04:40:55;;;;;;;1999.90;999.90;;;11.00;99.90;;;;;;5076638;28;20444;-66
2023/03/19 04:43:21;;;;;;;1999.90;999.90;;;11.10;99.90;;;;;;5076647;28;21154;-67
2023/03/19 04:45:46;;;;;;;1999.90;999.90;;;11.10;99.90;;;;;;5076344;28;20428;-66
2023/03/19 04:48:12;;;;;;;1999.90;999.90;;;11.10;99.90;;;;;;5073957;28;20911;-66
2023/03/19 04:50:39;;;;;;;1999.90;999.90;;;11.10;99.90;;;;;;5073887;28;20173;-66
2023/03/19 04:53:04;;;;;;;1999.90;999.90;;;11.10;99.90;;;;;;5075895;28;20262;-66
2023/03/19 04:55:31;;;;;;;1999.90;999.90;;;11.20;99.90;;;;;;5077549;28;20865;-66
2023/03/19 04:57:57;;;;;;;1999.90;999.90;;;11.20;99.90;;;;;;5076832;28;20175;-67
2023/03/19 05:00:23;;;;;;;1999.90;999.90;;;11.30;99.90;;;;;;5076279;28;20900;-66
2023/03/19 05:02:48;;;;;;;1999.90;999.90;;;11.30;99.90;;;;;;5075941;28;20587;-66
2023/03/19 05:05:14;;;;;;;1999.90;999.90;;;11.40;99.90;;;;;;5075787;28;20429;-66
2023/03/19 05:07:41;;;;;;;1999.90;999.90;;;11.40;99.90;;;;;;5075764;28;20637;-67
2023/03/19 05:10:07;;;;;;;1999.90;999.90;;;11.40;99.90;;;;;;5076100;28;20815;-67
2023/03/19 05:12:33;;;;;;;1999.90;999.90;;;11.40;99.90;;;;;;5075592;28;20421;-67
2023/03/19 05:14:59;;;;;;;1999.90;999.90;;;11.40;99.90;;;;;;5075483;28;20399;-67
2023/03/19 05:17:24;;;;;;;1999.90;999.90;;;11.40;99.90;;;;;;5075837;28;20203;-66
2023/03/19 05:19:51;;;;;;;1999.90;999.90;;;11.40;99.90;;;;;;5076119;28;20575;-67
2023/03/19 05:22:18;;;;;;;1999.90;999.90;;;11.30;99.90;;;;;;5075654;28;20204;-66
2023/03/19 05:24:44;;;;;;;1999.90;999.90;;;11.30;99.90;;;;;;5075196;28;20410;-66
2023/03/19 05:27:10;;;;;;;1999.90;999.90;;;11.30;99.90;;;;;;5075737;28;20769;-66
2023/03/19 05:29:35;;;;;;;1999.90;999.90;;;11.30;99.90;;;;;;5075994;28;20421;-67
2023/03/19 05:32:02;;;;;;;1999.90;999.90;;;11.30;99.90;;;;;;5075466;28;20689;-66
2023/03/19 05:34:28;;;;;;;1999.90;999.90;;;11.30;99.90;;;;;;5075916;28;20175;-67
2023/03/19 05:36:53;;;;;;;1999.90;999.90;;;11.40;99.90;;;;;;5075624;28;20426;-67
2023/03/19 05:39:19;;;;;;;1999.90;999.90;;;11.40;99.90;;;;;;5075752;28;20403;-66
2023/03/19 05:41:45;;;;;;;1999.90;999.90;;;11.40;99.90;;;;;;5076272;28;20700;-67
2023/03/19 05:44:11;;;;;;;1999.90;999.90;;;11.40;99.90;;;;;;5075744;28;20414;-67
2023/03/19 05:46:37;;;;;;;1999.90;999.90;;;11.30;99.90;;;;;;5075676;28;20195;-67
2023/03/19 05:49:03;;;;;;;1999.90;999.90;;;11.40;99.90;;;;;;5074542;28;20498;-66
2023/03/19 05:51:29;;;;;;;1999.90;999.90;;;11.40;99.90;;;;;;5075744;28;20532;-66
2023/03/19 05:53:54;;;;;;;1999.90;999.90;;;11.40;99.90;;;;;;5076009;28;20473;-67
2023/03/19 05:56:20;;;;;;;1999.90;999.90;;;11.50;99.90;;;;;;5075831;28;20221;-67
2023/03/19 05:58:46;;;;;;;1999.90;999.90;;;11.40;99.90;;;;;;5076610;28;20157;-67
2023/03/19 06:01:11;;;;;;;1999.90;999.90;;;11.40;99.90;;;;;;5076947;28;20168;-67
2023/03/19 06:03:37;;;;;;;1999.90;999.90;;;11.40;99.90;;;;;;5075231;28;20704;-67
2023/03/19 06:06:03;;;;;;;1999.90;999.90;;;11.50;99.90;;;;;;5076140;28;20185;-67
2023/03/19 06:08:28;;;;;;;1999.90;999.90;;;11.40;99.90;;;;;;5076283;28;20173;-67
2023/03/19 06:10:54;;;;;;;1999.90;999.90;;;11.40;99.90;;;;;;5075210;28;20270;-67
2023/03/19 06:13:20;;;;;;;1999.90;999.90;;;11.40;99.90;;;;;;5075076;28;20654;-68
2023/03/19 06:15:47;;;;;;;1999.90;999.90;;;11.40;99.90;;;;;;5075555;28;20195;-67
2023/03/19 06:18:13;;;;;;;1999.90;999.90;;;11.40;99.90;;;;;;5075412;28;20338;-66
2023/03/19 06:20:39;;;;;;;1999.90;999.90;;;11.40;99.90;;;;;;5075406;28;20488;-68
2023/03/19 06:23:04;;;;;;;1999.90;999.90;;;11.40;99.90;;;;;;5075183;28;20211;-67
2023/03/19 06:25:30;;;;;;;1999.90;999.90;;;11.50;99.90;;;;;;5075808;28;20259;-66
2023/03/19 06:27:56;;;;;;;1999.90;999.90;;;11.50;99.90;;;;;;5075040;28;20166;-66
2023/03/19 06:30:21;;;;;;;1999.90;999.90;;;11.50;99.90;;;;;;5074669;28;20246;-66
2023/03/19 06:32:47;;;;;;;1999.90;999.90;;;11.60;99.90;;;;;;5071974;28;20632;-67
2023/03/19 06:35:13;;;;;;;1999.90;999.90;;;11.70;99.90;;;;;;5072111;28;20727;-66
2023/03/19 06:37:38;;;;;;;1999.90;999.90;;;11.70;99.90;;;;;;5072085;28;20195;-66
2023/03/19 06:40:04;;;;;;;1999.90;999.90;;;11.80;99.90;;;;;;5071966;28;20172;-67
2023/03/19 06:42:30;;;;;;;1999.90;999.90;;;11.80;99.90;;;;;;5071899;28;20199;-67
2023/03/19 06:44:56;;;;;;;1999.90;999.90;;;12.00;99.90;;;;;;5071725;28;20414;-67
2023/03/19 06:47:22;;;;;;;1999.90;999.90;;;11.90;99.90;;;;;;5071992;28;20165;-67
2023/03/19 06:49:47;;;;;;;1999.90;999.90;;;11.90;99.90;;;;;;5072193;28;20235;-66
2023/03/19 06:52:13;;;;;;;1999.90;999.90;;;12.00;99.90;;;;;;5071803;28;20577;-67
2023/03/19 06:54:38;;;;;;;1999.90;999.90;;;12.00;99.90;;;;;;5072003;28;20165;-66
2023/03/19 06:57:04;;;;;;;1999.90;999.90;;;12.20;99.90;;;;;;5071764;28;20223;-66
2023/03/19 06:59:30;;;;;;;1999.90;999.90;;;12.10;99.90;;;;;;5071845;28;20545;-67
2023/03/19 07:01:55;;;;;;;1999.90;999.90;;;12.10;99.90;;;;;;5071954;28;20445;-67
2023/03/19 07:04:21;;;;;;;1999.90;999.90;;;12.00;99.90;;;;;;5071686;28;20261;-66
2023/03/19 07:06:46;;;;;;;1999.90;999.90;;;12.00;99.90;;;;;;5071845;28;20346;-66
2023/03/19 07:09:12;;;;;;;1999.90;999.90;;;12.00;99.90;;;;;;5071853;28;20258;-66
2023/03/19 07:11:38;;;;;;;1999.90;999.90;;;12.10;99.90;;;;;;5071875;28;20224;-67
2023/03/19 07:14:04;;;;;;;1999.90;999.90;;;12.20;99.90;;;;;;5072177;28;20168;-67
2023/03/19 07:16:29;;;;;;;1999.90;999.90;;;12.30;99.90;;;;;;5075766;28;20190;-67
2023/03/19 07:18:55;;;;;;;1999.90;999.90;;;12.40;99.90;;;;;;5075977;28;20163;-66
2023/03/19 07:21:21;;;;;;;1999.90;999.90;;;12.50;99.90;;;;;;5075937;28;20173;-67
2023/03/19 07:23:46;;;;;;;1999.90;999.90;;;12.60;99.90;;;;;;5075672;28;20971;-66
2023/03/19 07:26:12;;;;;;;1999.90;999.90;;;12.80;99.90;;;;;;5075545;28;20193;-66
2023/03/19 07:28:38;;;;;;;1999.90;999.90;;;13.00;99.90;;;;;;5075863;28;20164;-67
2023/03/19 07:31:04;;;;;;;1999.90;999.90;;;13.10;99.90;;;;;;5075744;28;20169;-67
2023/03/19 07:33:30;;;;;;;1999.90;999.90;;;13.10;99.90;;;;;;5075485;28;20673;-67
2023/03/19 07:35:55;;;;;;;1999.90;999.90;;;13.10;99.90;;;;;;5075589;28;20436;-66
2023/03/19 07:38:21;;;;;;;1999.90;999.90;;;13.10;99.90;;;;;;5075502;28;20626;-66
2023/03/19 07:40:46;;;;;;;1999.90;999.90;;;13.00;99.90;;;;;;5075407;28;20322;-67
2023/03/19 07:43:12;;;;;;;1999.90;999.90;;;13.00;99.90;;;;;;5075146;28;20207;-67
2023/03/19 07:45:37;;;;;;;1999.90;999.90;;;13.00;99.90;;;;;;5075194;28;20183;-66
2023/03/19 07:48:03;;;;;;;1999.90;999.90;;;13.10;99.90;;;;;;5075344;28;20188;-67
2023/03/19 07:50:30;;;;;;;1999.90;999.90;;;13.10;99.90;;;;;;5075180;28;20171;-66
2023/03/19 07:52:56;;;;;;;1999.90;999.90;;;13.10;99.90;;;;;;5075038;28;20404;-67
2023/03/19 07:55:21;;;;;;;1999.90;999.90;;;13.10;99.90;;;;;;5075091;28;20459;-66
2023/03/19 07:57:47;;;;;;;1999.90;999.90;;;13.10;99.90;;;;;;5075112;28;20454;-66
2023/03/19 08:00:13;;;;;;;1999.90;999.90;;;13.10;99.90;;;;;;5075034;28;20216;-67
2023/03/19 08:02:41;;;;;;;1999.90;999.90;;;13.10;99.90;;;;;;5074907;28;20653;-67
2023/03/19 08:05:08;;;;;;;1999.90;999.90;;;13.10;99.90;;;;;;5074989;28;20425;-67
2023/03/19 08:07:34;;;;;;;1999.90;999.90;;;13.20;99.90;;;;;;5074839;28;20908;-66
2023/03/19 08:09:59;;;;;;;1999.90;999.90;;;13.20;99.90;;;;;;5074844;28;20410;-66
2023/03/19 08:12:25;;;;;;;1999.90;999.90;;;13.20;99.90;;;;;;5074588;28;20418;-66
2023/03/19 08:14:51;;;;;;;1999.90;999.90;;;13.20;99.90;;;;;;5074725;28;20170;-67
2023/03/19 08:17:16;;;;;;;1999.90;999.90;;;13.30;99.90;;;;;;5074607;28;20180;-66
2023/03/19 08:19:42;;;;;;;1999.90;999.90;;;13.30;99.90;;;;;;5074732;28;20178;-66
2023/03/19 08:22:08;;;;;;;1999.90;999.90;;;13.20;99.90;;;;;;5074439;28;20231;-67
2023/03/19 08:24:34;;;;;;;1999.90;999.90;;;13.20;99.90;;;;;;5074616;28;20493;-67
2023/03/19 08:26:59;;;;;;;1999.90;999.90;;;13.20;99.90;;;;;;5073421;28;20426;-67
2023/03/19 08:29:26;;;;;;;1999.90;999.90;;;13.20;99.90;;;;;;5074456;28;20190;-67
2023/03/19 08:31:52;;;;;;;1999.90;999.90;;;13.30;99.90;;;;;;5074511;28;20181;-67
2023/03/19 08:34:18;;;;;;;1999.90;999.90;;;13.40;99.90;;;;;;5074138;28;20413;-66
2023/03/19 08:36:44;;;;;;;1999.90;999.90;;;13.60;99.90;;;;;;5074034;28;20422;-67
2023/03/19 08:39:09;;;;;;;1999.90;999.90;;;13.80;99.90;;;;;;5074203;28;20419;-67
2023/03/19 08:41:35;;;;;;;1999.90;999.90;;;14.00;99.90;;;;;;5073843;28;20182;-67
2023/03/19 08:44:01;;;;;;;1999.90;999.90;;;14.20;99.90;;;;;;5073877;28;20163;-67
2023/03/19 08:46:28;;;;;;;1999.90;999.90;;;14.30;99.90;;;;;;5073784;28;20529;-67
2023/03/19 08:48:54;;;;;;;1999.90;999.90;;;14.40;99.90;;;;;;5074101;28;20600;-67
2023/03/19 08:51:20;;;;;;;1999.90;999.90;;;14.40;99.90;;;;;;5073947;28;20496;-68
2023/03/19 08:53:46;;;;;;;1999.90;999.90;;;14.40;99.90;;;;;;5073830;28;20412;-67
2023/03/19 08:56:11;;;;;;;1999.90;999.90;;;14.40;99.90;;;;;;5073681;28;20421;-67
2023/03/19 08:58:38;;;;;;;1999.90;999.90;;;14.40;99.90;;;;;;5074014;28;20938;-68
2023/03/19 09:01:10;;;;;;;1999.90;999.90;;;14.40;99.90;;;;;;5073821;28;20192;-67
2023/03/19 09:03:36;;;;;;;1999.90;999.90;;;14.60;99.90;;;;;;5073466;28;20491;-67
2023/03/19 09:06:05;;;;;;;1999.90;999.90;;;14.70;99.90;;;;;;5073543;28;20458;-67
2023/03/19 09:08:31;;;;;;;1999.90;999.90;;;14.80;99.90;;;;;;5073867;28;20463;-67
2023/03/19 09:10:57;;;;;;;1999.90;999.90;;;14.90;99.90;;;;;;5073520;28;20412;-68
2023/03/19 09:13:23;;;;;;;1999.90;999.90;;;15.20;99.90;;;;;;5073412;28;20427;-67
2023/03/19 09:15:50;;;;;;;1999.90;999.90;;;15.50;99.90;;;;;;5073452;28;20433;-66
2023/03/19 09:18:16;;;;;;;1999.90;999.90;;;15.80;99.90;;;;;;5073394;28;20416;-68
2023/03/19 09:20:42;;;;;;;1999.90;999.90;;;15.90;99.90;;;;;;5073276;28;20413;-67
2023/03/19 09:23:07;;;;;;;1999.90;999.90;;;16.10;99.90;;;;;;5073054;28;21009;-68
2023/03/19 09:25:33;;;;;;;1999.90;999.90;;;16.30;99.90;;;;;;5072934;28;20431;-67
2023/03/19 09:27:59;;;;;;;1999.90;999.90;;;16.40;99.90;;;;;;5073198;28;20757;-67
2023/03/19 09:30:24;;;;;;;1999.90;999.90;;;16.30;99.90;;;;;;5073516;28;20199;-67
2023/03/19 09:32:50;;;;;;;1999.90;999.90;;;16.40;99.90;;;;;;5072958;28;20588;-67
2023/03/19 09:35:16;;;;;;;1999.90;999.90;;;16.50;99.90;;;;;;5073006;28;20200;-67
2023/03/19 09:37:41;;;;;;;1999.90;999.90;;;16.50;99.90;;;;;;5073021;28;20643;-67
2023/03/19 09:40:31;;;;;;;1999.90;999.90;;;16.50;99.90;;;;;;5072872;28;20202;-68
2023/03/19 09:43:27;;;;;;;1999.90;999.90;;;16.40;99.90;;;;;;5051394;28;20655;-67
2023/03/19 09:45:53;;;;;;;1999.90;999.90;;;16.20;99.90;;;;;;5073404;28;20437;-66
2023/03/19 09:48:34;;;;;;;1999.90;999.90;;;16.10;99.90;;;;;;5072811;28;20450;-66
2023/03/19 09:51:04;;;;;;;1999.90;999.90;;;16.10;99.90;;;;;;5072934;28;20451;-66
2023/03/19 09:53:43;;;;;;;1999.90;999.90;;;16.10;99.90;;;;;;5072663;28;20821;-66
2023/03/19 09:56:13;;;;;;;1999.90;999.90;;;16.10;99.90;;;;;;5069235;28;20980;-66
2023/03/19 09:58:39;;;;;;;1999.90;999.90;;;16.00;99.90;;;;;;5067768;28;20415;-66
2023/03/19 10:01:05;;;;;;;1999.90;999.90;;;15.90;99.90;;;;;;5068556;28;20470;-65
2023/03/19 10:03:36;;;;;;;1999.90;999.90;;;15.90;99.90;;;;;;5064890;28;20508;-65
2023/03/19 10:06:21;;;;;;;1999.90;999.90;;;15.90;99.90;;;;;;5071984;28;20451;-65
2023/03/19 10:09:19;;;;;;;1999.90;999.90;;;15.90;99.90;;;;;;5072223;28;20398;-65
2023/03/19 10:11:55;;;;;;;1999.90;999.90;;;15.90;99.90;;;;;;5064519;28;20870;-66
2023/03/19 10:14:50;;;;;;;1999.90;999.90;;;15.80;99.90;;;;;;5072303;28;20430;-66
2023/03/19 10:17:27;;;;;;;1999.90;999.90;;;15.90;99.90;;;;;;5071909;28;20510;-66
2023/03/19 10:20:01;;;;;;;1999.90;999.90;;;15.90;99.90;;;;;;5061596;28;20442;-66
2023/03/19 10:22:33;;;;;;;1999.90;999.90;;;16.00;99.90;;;;;;5061350;28;20455;-65
2023/03/19 10:25:00;;;;;;;1999.90;999.90;;;16.00;99.90;;;;;;5070067;28;20814;-66
2023/03/19 10:27:28;;;;;;;1999.90;999.90;;;16.00;99.90;;;;;;5071965;28;20773;-66
2023/03/19 10:29:54;;;;;;;1999.90;999.90;;;16.00;99.90;;;;;;5065544;28;20899;-65
2023/03/19 10:32:41;;;;;;;1999.90;999.90;;;16.00;99.90;;;;;;5071736;28;20620;-66
2023/03/19 10:35:20;;;;;;;1999.90;999.90;;;16.00;99.90;;;;;;5071930;28;20444;-67
2023/03/19 10:37:47;;;;;;;1999.90;999.90;;;16.00;99.90;;;;;;5067348;28;20404;-67
2023/03/19 10:40:43;;;;;;;1999.90;999.90;;;15.90;99.90;;;;;;5071846;28;20431;-66
2023/03/19 10:43:24;;;;;;;1999.90;999.90;;;15.80;99.90;;;;;;5071292;28;20473;-66
2023/03/19 10:45:50;;;;;;;1999.90;999.90;;;15.70;99.90;;;;;;5071747;28;20433;-66
2023/03/19 10:48:17;;;;;;;1999.90;999.90;;;15.50;99.90;;;;;;5071665;28;20407;-66
2023/03/19 10:50:51;;;;;;;1999.90;999.90;;;15.40;99.90;;;;;;5070767;28;20228;-66
2023/03/19 10:53:17;;;;;;;1999.90;999.90;;;15.20;99.90;;;;;;5071588;28;20417;-66
2023/03/19 10:55:52;;;;;;;1999.90;999.90;;;15.20;99.90;;;;;;5070074;28;20472;-66
2023/03/19 10:58:21;;;;;;;1999.90;999.90;;;15.30;99.90;;;;;;5066851;28;20181;-67
2023/03/19 11:01:01;;;;;;;1999.90;999.90;;;15.40;99.90;;;;;;5071538;28;20802;-67
2023/03/19 11:03:38;;;;;;;1999.90;999.90;;;15.60;99.90;;;;;;5071777;28;20824;-67
2023/03/19 11:06:14;;;;;;;1999.90;999.90;;;15.80;99.90;;;;;;5071364;28;20429;-66
2023/03/19 11:08:39;;;;;;;1999.90;999.90;;;16.00;99.90;;;;;;5071758;28;20503;-68
2023/03/19 11:11:05;;;;;;;1999.90;999.90;;;16.30;99.90;;;;;;5071348;28;20445;-66
2023/03/19 11:13:34;;;;;;;1999.90;999.90;;;16.50;99.90;;;;;;5071446;28;20609;-66
2023/03/19 11:16:00;;;;;;;1999.90;999.90;;;16.60;99.90;;;;;;5071630;28;20804;-67
2023/03/19 11:18:37;;;;;;;1999.90;999.90;;;16.80;99.90;;;;;;5071614;28;20508;-66
2023/03/19 11:21:28;;;;;;;1999.90;999.90;;;17.10;99.90;;;;;;5071720;28;20524;-66
2023/03/19 11:24:00;;;;;;;1999.90;999.90;;;17.20;99.90;;;;;;5070223;28;20440;-66
2023/03/19 11:26:27;;;;;;;1999.90;999.90;;;17.40;99.90;;;;;;5071668;28;20788;-66
2023/03/19 11:28:54;;;;;;;1999.90;999.90;;;17.40;99.90;;;;;;5070803;28;20420;-66
2023/03/19 11:31:28;;;;;;;1999.90;999.90;;;17.40;99.90;;;;;;5071238;28;20410;-66
2023/03/19 11:34:00;;;;;;;1999.90;999.90;;;17.40;99.90;;;;;;5071222;28;20407;-66
2023/03/19 11:36:40;;;;;;;1999.90;999.90;;;17.50;99.90;;;;;;5067594;28;20832;-69
2023/03/19 11:39:24;;;;;;;1999.90;999.90;;;17.60;99.90;;;;;;5066012;28;20401;-66
2023/03/19 11:42:09;;;;;;;1999.90;999.90;;;17.70;99.90;;;;;;5068043;28;20493;-66
2023/03/19 11:45:02;;;;;;;1999.90;999.90;;;17.70;99.90;;;;;;5062523;28;20516;-66
2023/03/19 11:47:39;;;;;;;1999.90;999.90;;;17.80;99.90;;;;;;5065565;28;20496;-66
2023/03/19 11:50:26;;;;;;;1999.90;999.90;;;18.00;99.90;;;;;;5070295;28;20411;-66
2023/03/19 11:53:13;;;;;;;1999.90;999.90;;;18.00;99.90;;;;;;5070863;28;20396;-66
2023/03/19 11:55:45;;;;;;;1999.90;999.90;;;18.00;99.90;;;;;;5071264;28;20435;-66
2023/03/19 11:58:42;;;;;;;1999.90;999.90;;;18.10;99.90;;;;;;5071155;28;20867;-66
2023/03/19 12:01:32;;;;;;;1999.90;999.90;;;18.20;99.90;;;;;;5071391;28;20412;-66
2023/03/19 12:04:18;;;;;;;1999.90;999.90;;;18.50;99.90;;;;;;5074830;28;20483;-66